createdAt,value
2023-02-25T00:01:39.336Z,93.52
2023-02-25T00:04:06.484Z,93.73
2023-02-25T00:06:33.404Z,93.73
2023-02-25T00:09:01.105Z,93.69
2023-02-25T00:11:28.428Z,93.87
2023-02-25T00:13:55.495Z,94.14
2023-02-25T00:16:25.038Z,94.12
2023-02-25T00:18:57.289Z,94.02
2023-02-25T00:21:25.798Z,94.27
2023-02-25T00:24:00.127Z,94.35
2023-02-25T00:26:31.441Z,94.06
2023-02-25T00:28:58.408Z,94.35
2023-02-25T00:31:26.109Z,94.20
2023-02-25T00:33:54.002Z,94.46
2023-02-25T00:36:26.463Z,94.67
2023-02-25T00:38:56.278Z,94.71
2023-02-25T00:41:27.508Z,94.95
2023-02-25T00:44:00.943Z,95.68
2023-02-25T00:46:30.069Z,96.21
2023-02-25T00:48:58.961Z,96.66
2023-02-25T00:51:29.559Z,97.12
2023-02-25T00:53:57.575Z,97.27
2023-02-25T00:56:26.121Z,97.56
2023-02-25T00:58:53.848Z,97.64
2023-02-25T01:01:31.644Z,97.82
2023-02-25T01:03:59.694Z,97.84
2023-02-25T01:06:29.111Z,97.90
2023-02-25T01:08:57.165Z,97.93
2023-02-25T01:11:29.363Z,98.06
2023-02-25T01:14:07.004Z,98.13
2023-02-25T01:16:35.554Z,98.27
2023-02-25T01:19:07.952Z,98.46
2023-02-25T01:21:46.731Z,98.48
2023-02-25T01:24:18.048Z,98.67
2023-02-25T01:26:47.093Z,98.52
2023-02-25T01:29:23.760Z,98.47
2023-02-25T01:31:56.916Z,98.69
2023-02-25T01:34:24.645Z,98.54
2023-02-25T01:36:52.354Z,98.58
2023-02-25T01:39:22.166Z,99.03
2023-02-25T01:41:51.226Z,99.07
2023-02-25T01:44:33.058Z,98.85
2023-02-25T01:47:01.517Z,98.95
2023-02-25T01:49:41.945Z,99.03
2023-02-25T01:52:24.968Z,99.09
2023-02-25T01:54:56.292Z,99.22
2023-02-25T01:57:23.884Z,99.19
2023-02-25T01:59:53.976Z,99.11
2023-02-25T02:02:24.478Z,99.19
2023-02-25T02:04:53.344Z,99.15
2023-02-25T02:07:22.740Z,99.01
2023-02-25T02:09:59.892Z,98.93
2023-02-25T02:12:33.736Z,99.14
2023-02-25T02:15:04.646Z,99.15
2023-02-25T02:17:59.999Z,98.73
2023-02-25T02:21:11.870Z,98.61
2023-02-25T02:23:56.487Z,98.60
2023-02-25T02:26:50.775Z,98.43
2023-02-25T02:30:08.127Z,98.18
2023-02-25T02:32:58.516Z,98.14
2023-02-25T02:36:36.048Z,97.59
2023-02-25T02:39:22.612Z,97.67
2023-02-25T02:42:16.703Z,97.55
2023-02-25T02:45:01.561Z,97.33
2023-02-25T02:48:00.051Z,97.54
2023-02-25T02:50:57.800Z,97.21
2023-02-25T02:53:32.481Z,97.10
2023-02-25T02:56:03.438Z,96.87
2023-02-25T02:58:37.427Z,96.79
2023-02-25T03:01:13.424Z,97.04
2023-02-25T03:03:46.715Z,96.96
2023-02-25T03:06:22.731Z,96.82
2023-02-25T03:09:06.135Z,96.83
2023-02-25T03:11:33.799Z,96.96
2023-02-25T03:14:00.938Z,97.17
2023-02-25T03:16:47.037Z,97.12
2023-02-25T03:19:56.520Z,97.15
2023-02-25T03:22:33.743Z,97.31
2023-02-25T03:25:47.374Z,97.32
2023-02-25T03:28:30.609Z,97.24
2023-02-25T03:31:29.912Z,97.44
2023-02-25T03:34:19.069Z,97.40
2023-02-25T03:37:04.789Z,97.06
2023-02-25T03:39:40.260Z,97.29
2023-02-25T03:42:12.835Z,97.21
2023-02-25T03:44:45.668Z,97.67
2023-02-25T03:47:14.484Z,97.56
2023-02-25T03:49:59.277Z,97.56
2023-02-25T03:52:28.257Z,97.51
2023-02-25T03:54:57.497Z,97.33
2023-02-25T03:57:29.184Z,97.81
2023-02-25T03:59:56.517Z,97.55
2023-02-25T04:02:33.918Z,97.63
2023-02-25T04:05:00.932Z,97.42
2023-02-25T04:07:27.905Z,97.24
2023-02-25T04:09:54.795Z,97.13
2023-02-25T04:12:23.077Z,97.08
2023-02-25T04:14:49.983Z,96.91
2023-02-25T04:17:16.874Z,97.11
2023-02-25T04:19:43.761Z,97.17
2023-02-25T04:22:10.734Z,96.91
2023-02-25T04:24:37.679Z,96.91
2023-02-25T04:27:04.601Z,96.88
2023-02-25T04:29:31.536Z,97.09
2023-02-25T04:31:58.840Z,97.14
2023-02-25T04:34:26.337Z,96.97
2023-02-25T04:36:53.206Z,97.26
2023-02-25T04:39:20.218Z,97.16
2023-02-25T04:41:47.137Z,97.22
2023-02-25T04:44:14.282Z,97.10
2023-02-25T04:46:42.859Z,97.15
2023-02-25T04:49:10.945Z,97.06
2023-02-25T04:51:39.332Z,97.01
2023-02-25T04:54:06.757Z,96.98
2023-02-25T04:56:33.644Z,97.18
2023-02-25T04:59:00.597Z,97.02
2023-02-25T05:01:28.011Z,96.96
2023-02-25T05:03:56.981Z,97.34
2023-02-25T05:06:25.197Z,97.03
2023-02-25T05:08:52.342Z,97.04
2023-02-25T05:11:20.549Z,96.66
2023-02-25T05:13:47.755Z,96.38
2023-02-25T05:16:16.883Z,96.31
2023-02-25T05:18:46.025Z,96.36
2023-02-25T05:21:23.804Z,96.19
2023-02-25T05:23:53.399Z,95.92
2023-02-25T05:26:23.917Z,95.96
2023-02-25T05:28:56.682Z,95.82
2023-02-25T05:31:25.041Z,95.67
2023-02-25T05:33:52.879Z,95.28
2023-02-25T05:36:20.793Z,95.04
2023-02-25T05:38:48.062Z,95.37
2023-02-25T05:41:15.932Z,95.32
2023-02-25T05:43:46.080Z,94.93
2023-02-25T05:46:14.022Z,95.13
2023-02-25T05:48:45.980Z,95.18
2023-02-25T05:51:17.770Z,95.01
2023-02-25T05:53:45.398Z,94.80
2023-02-25T05:56:15.936Z,95.04
2023-02-25T05:58:43.097Z,95.29
2023-02-25T06:01:13.823Z,95.16
2023-02-25T06:03:42.879Z,95.36
2023-02-25T06:06:14.981Z,95.31
2023-02-25T06:08:45.971Z,95.08
2023-02-25T06:11:19.359Z,95.10
2023-02-25T06:13:50.052Z,95.50
2023-02-25T06:16:18.466Z,95.35
2023-02-25T06:18:47.333Z,95.25
2023-02-25T06:21:15.518Z,95.20
2023-02-25T06:23:44.381Z,95.37
2023-02-25T06:26:14.515Z,95.07
2023-02-25T06:28:42.187Z,95.22
2023-02-25T06:31:16.976Z,95.18
2023-02-25T06:33:45.610Z,95.22
2023-02-25T06:36:13.538Z,95.16
2023-02-25T06:38:40.603Z,95.17
2023-02-25T06:41:12.279Z,95.42
2023-02-25T06:43:39.211Z,95.40
2023-02-25T06:46:08.253Z,95.40
2023-02-25T06:48:35.459Z,95.46
2023-02-25T06:51:04.779Z,95.59
2023-02-25T06:53:31.666Z,95.51
2023-02-25T06:55:59.049Z,95.53
2023-02-25T06:58:26.077Z,95.96
2023-02-25T07:00:53.076Z,95.81
2023-02-25T07:03:20.190Z,95.72
2023-02-25T07:05:47.164Z,95.67
2023-02-25T07:08:14.102Z,95.85
2023-02-25T07:10:41.680Z,95.91
2023-02-25T07:13:10.881Z,95.82
2023-02-25T07:15:37.902Z,96.09
2023-02-25T07:18:05.468Z,96.09
2023-02-25T07:20:32.514Z,96.05
2023-02-25T07:23:02.848Z,96.47
2023-02-25T07:25:29.929Z,95.96
2023-02-25T07:27:56.977Z,95.89
2023-02-25T07:30:23.904Z,95.91
2023-02-25T07:32:50.944Z,95.79
2023-02-25T07:35:18.022Z,95.99
2023-02-25T07:37:44.977Z,95.58
2023-02-25T07:40:12.992Z,95.75
2023-02-25T07:42:41.547Z,95.86
2023-02-25T07:45:10.177Z,95.95
2023-02-25T07:47:38.699Z,95.59
2023-02-25T07:50:07.585Z,95.69
2023-02-25T07:52:34.563Z,95.61
2023-02-25T07:55:01.510Z,95.50
2023-02-25T07:57:29.116Z,95.69
2023-02-25T07:59:56.427Z,95.61
2023-02-25T08:02:23.438Z,95.66
2023-02-25T08:04:50.546Z,95.72
2023-02-25T08:07:17.878Z,95.45
2023-02-25T08:09:44.825Z,95.26
2023-02-25T08:12:11.822Z,95.23
2023-02-25T08:14:38.920Z,95.09
2023-02-25T08:17:06.041Z,94.91
2023-02-25T08:19:33.135Z,94.68
2023-02-25T08:22:00.360Z,94.79
2023-02-25T08:24:27.409Z,94.82
2023-02-25T08:26:54.836Z,94.48
2023-02-25T08:29:22.165Z,94.50
2023-02-25T08:31:51.971Z,94.35
2023-02-25T08:34:19.191Z,94.37
2023-02-25T08:36:46.155Z,94.17
2023-02-25T08:39:13.279Z,93.97
2023-02-25T08:41:40.348Z,94.09
2023-02-25T08:44:07.427Z,93.93
2023-02-25T08:46:34.708Z,93.75
2023-02-25T08:49:02.246Z,93.61
2023-02-25T08:51:34.172Z,93.52
2023-02-25T08:54:12.688Z,93.54
2023-02-25T08:56:44.536Z,93.22
2023-02-25T08:59:15.168Z,93.41
2023-02-25T09:01:46.180Z,93.07
2023-02-25T09:04:22.782Z,93.36
2023-02-25T09:06:53.770Z,93.17
2023-02-25T09:09:22.255Z,93.57
2023-02-25T09:11:49.548Z,93.20
2023-02-25T09:14:17.267Z,93.58
2023-02-25T09:16:44.543Z,93.37
2023-02-25T09:19:12.640Z,93.04
2023-02-25T09:21:43.209Z,93.31
2023-02-25T09:24:10.797Z,93.66
2023-02-25T09:26:38.039Z,93.79
2023-02-25T09:29:07.278Z,93.75
2023-02-25T09:31:37.053Z,93.26
2023-02-25T09:34:07.455Z,92.67
2023-02-25T09:36:35.171Z,92.93
2023-02-25T09:39:02.680Z,92.65
2023-02-25T09:41:32.361Z,92.42
2023-02-25T09:44:13.563Z,92.33
2023-02-25T09:47:16.883Z,91.92
2023-02-25T09:49:52.217Z,91.37
2023-02-25T09:52:32.090Z,90.83
2023-02-25T09:55:16.944Z,91.07
2023-02-25T09:57:59.622Z,90.91
2023-02-25T10:00:27.338Z,91.12
2023-02-25T10:03:13.887Z,91.08
2023-02-25T10:06:00.964Z,91.28
2023-02-25T10:08:53.604Z,90.61
2023-02-25T10:11:53.911Z,90.48
2023-02-25T10:14:49.971Z,90.35
2023-02-25T10:17:44.402Z,89.47
2023-02-25T10:20:48.352Z,89.40
2023-02-25T10:23:50.378Z,89.53
2023-02-25T10:26:30.088Z,89.80
2023-02-25T10:29:06.736Z,90.46
2023-02-25T10:31:34.571Z,90.73
2023-02-25T10:34:26.155Z,91.74
2023-02-25T10:36:57.763Z,92.16
2023-02-25T10:39:27.163Z,92.52
2023-02-25T10:41:54.697Z,92.90
2023-02-25T10:44:21.788Z,93.29
2023-02-25T10:46:56.218Z,93.48
2023-02-25T10:49:30.193Z,93.21
2023-02-25T10:52:07.116Z,93.39
2023-02-25T10:54:48.782Z,93.38
2023-02-25T10:57:28.335Z,93.25
2023-02-25T11:00:23.291Z,93.06
2023-02-25T11:02:51.908Z,93.08
2023-02-25T11:05:43.663Z,92.92
2023-02-25T11:08:33.200Z,92.70
2023-02-25T11:11:30.389Z,92.24
2023-02-25T11:14:09.137Z,91.94
2023-02-25T11:16:39.311Z,91.18
2023-02-25T11:19:22.798Z,91.13
2023-02-25T11:21:50.125Z,91.70
2023-02-25T11:24:24.064Z,92.57
2023-02-25T11:26:52.544Z,93.30
2023-02-25T11:29:34.974Z,93.49
2023-02-25T11:32:12.541Z,93.75
2023-02-25T11:35:17.836Z,93.60
2023-02-25T11:37:49.473Z,93.48
2023-02-25T11:40:32.868Z,93.25
2023-02-25T11:43:05.856Z,93.03
2023-02-25T11:45:53.064Z,93.43
2023-02-25T11:48:48.199Z,94.03
2023-02-25T11:52:00.899Z,93.93
2023-02-25T11:54:58.027Z,93.91
2023-02-25T11:58:17.216Z,93.49
2023-02-25T12:00:59.075Z,93.50
2023-02-25T12:04:03.704Z,92.60
2023-02-25T12:06:50.972Z,92.55
2023-02-25T12:09:39.221Z,92.16
2023-02-25T12:12:43.998Z,91.94
2023-02-25T12:15:51.920Z,91.94
2023-02-25T12:18:27.229Z,92.04
2023-02-25T12:21:12.285Z,92.02
2023-02-25T12:24:23.739Z,92.95
2023-02-25T12:27:24.276Z,93.45
2023-02-25T12:30:03.668Z,93.06
2023-02-25T12:32:45.354Z,92.72
2023-02-25T12:35:39.974Z,92.13
2023-02-25T12:39:03.264Z,91.89
2023-02-25T12:41:46.621Z,91.96
2023-02-25T12:44:41.134Z,92.42
2023-02-25T12:47:27.363Z,93.35
2023-02-25T12:50:50.931Z,93.56
2023-02-25T12:53:26.765Z,93.62
2023-02-25T12:55:56.649Z,93.21
2023-02-25T12:59:14.463Z,93.84
2023-02-25T13:02:36.980Z,93.92
2023-02-25T13:05:15.702Z,93.80
2023-02-25T13:08:07.237Z,93.67
2023-02-25T13:10:54.448Z,93.23
2023-02-25T13:13:47.960Z,93.00
2023-02-25T13:16:43.192Z,92.40
2023-02-25T13:19:44.105Z,92.39
2023-02-25T13:22:44.776Z,93.06
2023-02-25T13:25:43.125Z,93.08
2023-02-25T13:28:43.629Z,93.46
2023-02-25T13:31:28.541Z,93.65
2023-02-25T13:34:15.720Z,93.92
2023-02-25T13:37:21.551Z,94.04
2023-02-25T13:40:09.304Z,93.45
2023-02-25T13:42:58.701Z,93.70
2023-02-25T13:45:50.546Z,93.82
2023-02-25T13:48:52.354Z,93.67
2023-02-25T13:51:45.713Z,93.64
2023-02-25T13:54:43.251Z,93.24
2023-02-25T13:57:25.310Z,93.19
2023-02-25T14:00:35.207Z,93.37
2023-02-25T14:03:57.812Z,93.63
2023-02-25T14:07:05.154Z,94.07
2023-02-25T14:10:19.646Z,93.62
2023-02-25T14:13:06.847Z,93.64
2023-02-25T14:15:59.435Z,93.50
2023-02-25T14:18:48.422Z,94.01
2023-02-25T14:21:40.101Z,94.46
2023-02-25T14:24:27.988Z,93.97
2023-02-25T14:27:03.158Z,94.14
2023-02-25T14:29:54.869Z,93.43
2023-02-25T14:32:54.970Z,93.10
2023-02-25T14:35:49.087Z,93.42
2023-02-25T14:38:31.354Z,93.08
2023-02-25T14:41:29.050Z,92.61
2023-02-25T14:44:01.746Z,92.28
2023-02-25T14:46:42.987Z,92.38
2023-02-25T14:49:40.899Z,92.59
2023-02-25T14:52:52.678Z,92.62
2023-02-25T14:56:02.908Z,92.61
2023-02-25T14:59:00.595Z,92.19
2023-02-25T15:01:48.781Z,92.13
2023-02-25T15:05:04.550Z,91.73
2023-02-25T15:07:57.158Z,92.78
2023-02-25T15:10:41.601Z,92.33
2023-02-25T15:13:40.194Z,91.89
2023-02-25T15:16:42.426Z,91.52
2023-02-25T15:19:46.247Z,90.93
2023-02-25T15:22:27.873Z,90.96
2023-02-25T15:25:20.330Z,88.03
2023-02-25T15:27:51.894Z,87.96
2023-02-25T15:30:22.679Z,87.69
2023-02-25T15:32:59.621Z,88.23
2023-02-25T15:35:35.355Z,87.93
2023-02-25T15:38:10.157Z,87.40
2023-02-25T15:40:49.221Z,86.88
2023-02-25T15:43:16.480Z,86.93
2023-02-25T15:45:49.353Z,87.23
2023-02-25T15:48:21.960Z,87.12
2023-02-25T15:50:48.800Z,86.88
2023-02-25T15:53:21.813Z,86.84
2023-02-25T15:56:11.359Z,86.85
2023-02-25T15:58:45.453Z,87.03
2023-02-25T16:01:28.993Z,86.93
2023-02-25T16:03:56.617Z,86.60
2023-02-25T16:06:55.791Z,86.94
2023-02-25T16:09:23.421Z,87.50
2023-02-25T16:11:53.592Z,88.24
2023-02-25T16:14:34.466Z,88.50
2023-02-25T16:17:19.609Z,88.34
2023-02-25T16:19:53.938Z,88.89
2023-02-25T16:22:24.529Z,89.08
2023-02-25T16:24:55.372Z,89.12
2023-02-25T16:27:52.352Z,89.50
2023-02-25T16:30:27.794Z,89.71
2023-02-25T16:34:09.368Z,89.80
2023-02-25T16:36:37.949Z,90.39
2023-02-25T16:39:23.751Z,90.35
2023-02-25T16:41:52.294Z,90.34
2023-02-25T16:44:31.817Z,90.55
2023-02-25T16:46:59.354Z,90.66
2023-02-25T16:49:37.041Z,90.57
2023-02-25T16:52:04.770Z,90.56
2023-02-25T16:54:37.690Z,90.61
2023-02-25T16:57:09.383Z,90.78
2023-02-25T16:59:38.852Z,90.73
2023-02-25T17:02:17.662Z,90.79
2023-02-25T17:04:51.573Z,90.62
2023-02-25T17:07:27.956Z,90.60
2023-02-25T17:10:01.828Z,90.71
2023-02-25T17:12:52.376Z,90.78
2023-02-25T17:15:27.615Z,90.79
2023-02-25T17:18:06.369Z,90.36
2023-02-25T17:20:34.022Z,90.31
2023-02-25T17:23:09.832Z,89.66
2023-02-25T17:25:43.708Z,89.67
2023-02-25T17:28:23.703Z,89.55
2023-02-25T17:30:51.994Z,89.93
2023-02-25T17:33:29.360Z,90.07
2023-02-25T17:36:15.059Z,89.99
2023-02-25T17:38:44.148Z,90.17
2023-02-25T17:41:21.508Z,90.11
2023-02-25T17:43:48.849Z,89.54
2023-02-25T17:46:36.261Z,89.71
2023-02-25T17:49:23.469Z,89.74
2023-02-25T17:51:57.618Z,89.78
2023-02-25T17:54:28.178Z,90.03
2023-02-25T17:57:10.325Z,89.65
2023-02-25T17:59:42.194Z,89.78
2023-02-25T18:02:39.985Z,89.56
2023-02-25T18:05:13.175Z,89.80
2023-02-25T18:07:44.517Z,89.80
2023-02-25T18:10:31.651Z,89.63
2023-02-25T18:13:00.822Z,89.82
2023-02-25T18:15:31.764Z,90.12
2023-02-25T18:18:05.016Z,90.43
2023-02-25T18:20:36.506Z,90.41
2023-02-25T18:23:22.383Z,90.80
2023-02-25T18:26:26.713Z,90.69
2023-02-25T18:28:57.563Z,90.86
2023-02-25T18:31:25.285Z,90.94
2023-02-25T18:33:52.695Z,91.39
2023-02-25T18:36:25.688Z,91.35
2023-02-25T18:39:05.114Z,91.46
2023-02-25T18:41:33.540Z,91.94
2023-02-25T18:44:02.020Z,91.86
2023-02-25T18:46:29.284Z,92.33
2023-02-25T18:48:56.227Z,92.59
2023-02-25T18:51:23.443Z,92.92
2023-02-25T18:53:50.346Z,93.00
2023-02-25T18:56:17.642Z,93.21
2023-02-25T18:58:45.370Z,92.92
2023-02-25T19:01:24.282Z,93.47
2023-02-25T19:03:53.797Z,93.56
2023-02-25T19:06:20.742Z,93.53
2023-02-25T19:08:47.625Z,93.79
2023-02-25T19:11:23.443Z,93.48
2023-02-25T19:13:51.635Z,93.89
2023-02-25T19:16:19.446Z,94.00
2023-02-25T19:18:47.320Z,94.15
2023-02-25T19:21:18.358Z,94.11
2023-02-25T19:23:47.032Z,94.05
2023-02-25T19:26:16.009Z,93.72
2023-02-25T19:28:43.105Z,94.13
2023-02-25T19:31:10.215Z,94.08
2023-02-25T19:33:37.222Z,94.47
2023-02-25T19:36:05.316Z,94.55
2023-02-25T19:38:32.292Z,94.11
2023-02-25T19:41:05.031Z,94.05
2023-02-25T19:43:32.549Z,94.04
2023-02-25T19:45:59.490Z,94.21
2023-02-25T19:48:26.448Z,94.18
2023-02-25T19:50:53.512Z,94.24
2023-02-25T19:53:20.437Z,94.08
2023-02-25T19:55:47.553Z,94.45
2023-02-25T19:58:14.506Z,94.19
2023-02-25T20:00:45.923Z,94.15
2023-02-25T20:03:15.228Z,94.05
2023-02-25T20:05:42.793Z,93.93
2023-02-25T20:08:10.030Z,94.07
2023-02-25T20:10:36.988Z,94.06
2023-02-25T20:13:04.001Z,94.14
2023-02-25T20:15:31.042Z,93.98
2023-02-25T20:17:57.995Z,93.72
2023-02-25T20:20:25.039Z,94.18
2023-02-25T20:22:52.177Z,93.77
2023-02-25T20:25:19.885Z,93.96
2023-02-25T20:27:47.044Z,94.12
2023-02-25T20:30:16.931Z,93.68
2023-02-25T20:32:45.240Z,93.97
2023-02-25T20:35:21.074Z,94.28
2023-02-25T20:38:28.969Z,94.47
2023-02-25T20:40:55.995Z,94.34
2023-02-25T20:43:23.175Z,94.35
2023-02-25T20:45:50.450Z,94.35
2023-02-25T20:48:35.664Z,94.30
2023-02-25T20:51:02.769Z,94.33
2023-02-25T20:53:30.065Z,94.35
2023-02-25T20:55:57.730Z,94.67
2023-02-25T20:58:24.605Z,94.91
2023-02-25T21:00:51.541Z,94.82
2023-02-25T21:03:18.520Z,95.15
2023-02-25T21:05:45.668Z,95.10
2023-02-25T21:08:12.604Z,95.52
2023-02-25T21:10:43.343Z,95.27
2023-02-25T21:13:10.436Z,95.44
2023-02-25T21:15:37.400Z,95.66
2023-02-25T21:18:04.362Z,95.53
2023-02-25T21:20:31.355Z,95.79
2023-02-25T21:22:58.383Z,95.67
2023-02-25T21:25:25.623Z,95.67
2023-02-25T21:27:52.580Z,95.90
2023-02-25T21:30:19.604Z,96.18
2023-02-25T21:32:46.473Z,96.18
2023-02-25T21:35:13.481Z,96.03
2023-02-25T21:37:40.412Z,96.14
2023-02-25T21:40:07.814Z,96.21
2023-02-25T21:42:34.757Z,96.67
2023-02-25T21:45:01.830Z,96.39
2023-02-25T21:47:28.760Z,96.63
2023-02-25T21:49:55.697Z,97.09
2023-02-25T21:52:22.860Z,97.29
2023-02-25T21:54:49.822Z,97.18
2023-02-25T21:57:16.740Z,97.58
2023-02-25T21:59:43.644Z,97.13
2023-02-25T22:02:10.811Z,96.95
2023-02-25T22:04:37.736Z,97.30
2023-02-25T22:07:04.682Z,97.57
2023-02-25T22:09:31.610Z,97.61
2023-02-25T22:11:58.526Z,97.87
2023-02-25T22:14:26.210Z,97.86
2023-02-25T22:16:53.097Z,97.81
2023-02-25T22:19:20.062Z,97.88
2023-02-25T22:21:47.150Z,98.26
2023-02-25T22:24:14.043Z,98.16
2023-02-25T22:26:40.948Z,98.06
2023-02-25T22:29:09.348Z,98.16
2023-02-25T22:31:37.377Z,98.39
2023-02-25T22:34:05.572Z,98.76
2023-02-25T22:36:32.554Z,98.37
2023-02-25T22:38:59.543Z,98.37
2023-02-25T22:41:30.233Z,98.32
2023-02-25T22:44:01.077Z,98.83
2023-02-25T22:46:36.967Z,98.92
2023-02-25T22:49:05.736Z,99.35
2023-02-25T22:51:36.490Z,99.31
2023-02-25T22:54:04.773Z,99.02
2023-02-25T22:56:32.310Z,99.50
2023-02-25T22:58:59.759Z,99.09
2023-02-25T23:01:27.990Z,99.19
2023-02-25T23:03:56.214Z,99.08
2023-02-25T23:06:37.346Z,99.19
2023-02-25T23:09:09.565Z,99.51
2023-02-25T23:11:36.474Z,99.53
2023-02-25T23:14:05.154Z,99.25
2023-02-25T23:16:36.222Z,99.32
2023-02-25T23:19:04.953Z,99.54
2023-02-25T23:21:33.500Z,98.99
2023-02-25T23:24:01.909Z,99.26
2023-02-25T23:26:33.674Z,99.33
2023-02-25T23:29:04.129Z,99.44
2023-02-25T23:31:42.236Z,99.50
2023-02-25T23:34:14.467Z,99.90
2023-02-25T23:36:44.043Z,99.82
2023-02-25T23:39:13.261Z,99.56
2023-02-25T23:41:40.252Z,99.66
2023-02-25T23:44:09.503Z,100.00
2023-02-25T23:46:37.654Z,99.88
2023-02-25T23:49:07.279Z,99.77
2023-02-25T23:51:35.913Z,100.00
2023-02-25T23:54:06.409Z,99.81
2023-02-25T23:56:35.337Z,100.00
2023-02-25T23:59:02.797Z,100.00
